Time;durP1;ratioP1;P1;durP2;ratioP2;P2;SDS_P1;SDS_P2;PMS_P1;PMS_P2;Temp;Humidity;BMP_temperature;BMP_pressure;BME280_temperature;BME280_humidity;BME280_pressure;Samples;Min_cycle;Max_cycle;Signal;HPM_P1;HPM_P2
2022/12/30 00:05:03;;;;;;;10;6.4;;;;;;;7.3;66.1;98590;;;;
2022/12/30 00:35:03;;;;;;;7.6;5;;;;;;;7.3;66.2;98580;;;;
2022/12/30 00:46:03;;;;;;;7.6;5;;;;;;;7.3;66.3;98600;;;;
2022/12/30 00:56:10;;;;;;;7.6;5;;;;;;;7;66.6;98600;;;;
2022/12/30 01:06:03;;;;;;;11.1;6.2;;;;;;;6.6;67.3;98590;;;;
2022/12/30 01:17:03;;;;;;;11.1;6.2;;;;;;;6.1;68.4;98580;;;;
2022/12/30 01:27:03;;;;;;;11.1;6.2;;;;;;;5.9;68.8;98570;;;;
2022/12/30 01:37:03;;;;;;;13.7;7.5;;;;;;;5.5;70.1;98560;;;;
2022/12/30 01:48:03;;;;;;;13.7;7.5;;;;;;;5.3;70.8;98550;;;;
2022/12/30 01:58:03;;;;;;;15.6;9.7;;;;;;;5.1;71.3;98540;;;;
2022/12/30 02:09:03;;;;;;;15.6;9.7;;;;;;;4.9;71.9;98540;;;;
2022/12/30 02:20:03;;;;;;;15.6;9.7;;;;;;;4.8;72.6;98540;;;;
2022/12/30 02:30:03;;;;;;;18.1;13.3;;;;;;;4.7;73.2;98540;;;;
2022/12/30 03:12:03;;;;;;;19.8;12.1;;;;;;;4.2;75.4;98560;;;;
2022/12/30 03:22:03;;;;;;;19.8;12.1;;;;;;;4.1;76.3;98560;;;;
2022/12/30 03:33:03;;;;;;;21.2;13;;;;;;;4.1;76.2;98580;;;;
2022/12/30 03:44:03;;;;;;;21.2;13;;;;;;;4.1;76.7;98590;;;;
2022/12/30 03:54:03;;;;;;;21.2;13;;;;;;;4.1;77.7;98600;;;;
2022/12/30 04:05:03;;;;;;;15.9;8.2;;;;;;;4.3;77.7;98620;;;;
2022/12/30 04:15:03;;;;;;;15.9;8.2;;;;;;;4.4;77.1;98630;;;;
2022/12/30 04:26:03;;;;;;;15.9;8.2;;;;;;;4.5;76.8;98640;;;;
2022/12/30 04:37:03;;;;;;;17.5;9.8;;;;;;;4.6;76.5;98640;;;;
2022/12/30 04:47:03;;;;;;;17.5;9.8;;;;;;;4.5;76.7;98660;;;;
2022/12/30 04:58:03;;;;;;;16.2;9.2;;;;;;;4.2;77.7;98670;;;;
2022/12/30 05:09:03;;;;;;;16.2;9.2;;;;;;;4;78.6;98700;;;;
2022/12/30 05:19:03;;;;;;;16.2;9.2;;;;;;;3.9;79;98730;;;;
2022/12/30 05:30:03;;;;;;;31.4;20.4;;;;;;;3.9;79.3;98740;;;;
2022/12/30 05:41:03;;;;;;;31.4;20.4;;;;;;;4;79.4;98750;;;;
2022/12/30 05:52:03;;;;;;;31.4;20.4;;;;;;;4.2;79.7;98770;;;;
2022/12/30 06:02:03;;;;;;;27.3;20.3;;;;;;;4.4;79.4;98790;;;;
2022/12/30 06:13:03;;;;;;;27.3;20.3;;;;;;;4.5;79.3;98800;;;;
2022/12/30 06:24:03;;;;;;;27.3;20.3;;;;;;;4.7;79.1;98810;;;;
2022/12/30 06:34:03;;;;;;;25.5;18.1;;;;;;;4.9;78.9;98830;;;;
2022/12/30 06:44:03;;;;;;;25.5;18.1;;;;;;;5.1;78.5;98850;;;;
2022/12/30 06:55:03;;;;;;;25.5;18.1;;;;;;;5.2;78.2;98880;;;;
2022/12/30 07:05:03;;;;;;;28.9;18.6;;;;;;;5.3;78.4;98890;;;;
2022/12/30 07:15:03;;;;;;;28.9;18.6;;;;;;;5.4;78.4;98900;;;;
2022/12/30 07:26:03;;;;;;;28.9;18.6;;;;;;;5.5;78.2;98910;;;;
2022/12/30 07:37:03;;;;;;;24;17.4;;;;;;;5.7;77.9;98920;;;;
2022/12/30 07:47:03;;;;;;;24;17.4;;;;;;;5.8;78;98930;;;;
2022/12/30 07:57:03;;;;;;;26.8;21.5;;;;;;;5.9;77.9;98940;;;;
2022/12/30 08:08:03;;;;;;;26.8;21.5;;;;;;;6.1;77.7;98940;;;;
2022/12/30 08:18:03;;;;;;;26.8;21.5;;;;;;;6.2;77.4;98960;;;;
2022/12/30 08:28:03;;;;;;;37;25.6;;;;;;;6.2;77.4;98970;;;;
2022/12/30 08:39:03;;;;;;;37;25.6;;;;;;;6.3;77;98980;;;;
2022/12/30 08:50:03;;;;;;;37;25.6;;;;;;;6.4;76.7;99000;;;;
2022/12/30 09:00:03;;;;;;;35.7;25.9;;;;;;;6.4;76.4;99010;;;;
2022/12/30 09:10:03;;;;;;;35.7;25.9;;;;;;;6.5;76;99030;;;;
2022/12/30 09:21:03;;;;;;;35.7;25.9;;;;;;;6.6;76.9;99020;;;;
2022/12/30 09:31:05;;;;;;;37.8;29.2;;;;;;;6.7;76.5;99030;;;;
2022/12/30 09:53:03;;;;;;;37.8;29.2;;;;;;;7.4;74.6;99040;;;;
2022/12/30 10:03:03;;;;;;;35.5;28.4;;;;;;;7.9;73.4;99030;;;;
2022/12/30 10:14:03;;;;;;;35.5;28.4;;;;;;;7.9;72.1;99020;;;;
2022/12/30 10:25:04;;;;;;;35.5;28.4;;;;;;;8.2;72.6;99000;;;;
2022/12/30 10:36:04;;;;;;;31.7;28.3;;;;;;;8.4;71.9;99000;;;;
2022/12/30 10:46:03;;;;;;;31.7;28.3;;;;;;;8.4;71.6;99000;;;;
2022/12/30 10:56:03;;;;;;;30.6;24.1;;;;;;;8.3;71.7;99000;;;;
2022/12/30 11:22:38;;;;;;;30.6;24.1;;;;;;;8.3;72.5;99020;;;;
2022/12/30 11:32:39;;;;;;;27.4;23.3;;;;;;;8.7;71.7;99030;;;;
2022/12/30 11:43:38;;;;;;;;;;;;;;;;;;;;;
2022/12/30 12:04:38;;;;;;;27;22.3;;;;;;;9.2;71.6;99010;;;;
2022/12/30 12:15:39;;;;;;;27;22.3;;;;;;;9.2;71.3;99020;;;;
2022/12/30 12:25:38;;;;;;;27;22.3;;;;;;;9.4;70.8;99020;;;;
2022/12/30 12:36:38;;;;;;;33.9;27.8;;;;;;;9.4;71.2;99030;;;;
2022/12/30 12:47:38;;;;;;;33.9;27.8;;;;;;;9.6;71.1;99020;;;;
2022/12/30 12:57:38;;;;;;;34.8;28.8;;;;;;;9.7;71.1;99030;;;;
2022/12/30 13:07:39;;;;;;;34.8;28.8;;;;;;;9.7;70.7;99030;;;;
2022/12/30 13:18:39;;;;;;;34.8;28.8;;;;;;;9.3;71;99020;;;;
2022/12/30 13:28:39;;;;;;;28.6;25.6;;;;;;;9;71.6;99020;;;;
2022/12/30 13:39:39;;;;;;;28.6;25.6;;;;;;;8.7;72.4;99020;;;;
2022/12/30 13:49:38;;;;;;;28.6;25.6;;;;;;;8.5;72.9;99020;;;;
2022/12/30 14:00:39;;;;;;;38.8;30.9;;;;;;;8.3;74.3;99040;;;;
2022/12/30 14:10:39;;;;;;;38.8;30.9;;;;;;;7.9;74.4;99040;;;;
2022/12/30 14:21:38;;;;;;;38.8;30.9;;;;;;;7.4;74.6;99040;;;;
2022/12/30 14:31:38;;;;;;;44.3;32.4;;;;;;;7;75;99030;;;;
2022/12/30 14:41:39;;;;;;;44.3;32.4;;;;;;;6.5;76.9;99030;;;;
2022/12/30 14:51:39;;;;;;;44.3;32.4;;;;;;;6.1;77.3;99040;;;;
2022/12/30 15:02:39;;;;;;;35.8;27.9;;;;;;;5.6;77.9;99060;;;;
2022/12/30 15:13:39;;;;;;;35.8;27.9;;;;;;;5.2;80.4;99040;;;;
2022/12/30 15:23:39;;;;;;;35.8;27.9;;;;;;;5;81.2;99040;;;;
2022/12/30 15:34:39;;;;;;;43.5;28;;;;;;;4.7;82.2;99030;;;;
2022/12/30 15:45:39;;;;;;;43.5;28;;;;;;;4.5;82.9;99030;;;;
2022/12/30 15:55:39;;;;;;;49.2;35.3;;;;;;;4.3;83.2;99040;;;;
2022/12/30 16:05:39;;;;;;;49.2;35.3;;;;;;;4;83.6;99050;;;;
2022/12/30 16:16:39;;;;;;;49.2;35.3;;;;;;;3.9;83.7;99060;;;;
2022/12/30 16:27:39;;;;;;;46.8;28.8;;;;;;;3.6;83.5;99070;;;;
2022/12/30 16:37:39;;;;;;;46.8;28.8;;;;;;;3.4;83.6;99060;;;;
2022/12/30 16:48:39;;;;;;;46.8;28.8;;;;;;;3.1;83.9;99070;;;;
2022/12/30 16:59:39;;;;;;;48.6;28.3;;;;;;;2.9;84.7;99060;;;;
2022/12/30 17:19:39;;;;;;;48.6;28.3;;;;;;;2.8;85.5;99040;;;;
2022/12/30 17:29:39;;;;;;;46.6;27.4;;;;;;;2.7;85.5;99050;;;;
2022/12/30 17:40:39;;;;;;;46.6;27.4;;;;;;;2.5;85.5;99050;;;;
2022/12/30 17:51:41;;;;;;;46.6;27.4;;;;;;;2.3;85.5;99050;;;;
2022/12/30 18:01:39;;;;;;;61.6;38.9;;;;;;;2.1;85.7;99050;;;;
2022/12/30 18:12:39;;;;;;;61.6;38.9;;;;;;;1.9;85.9;99050;;;;
2022/12/30 18:22:39;;;;;;;61.6;38.9;;;;;;;1.8;86.3;99030;;;;
2022/12/30 18:33:39;;;;;;;64.7;38.4;;;;;;;1.6;86.4;99020;;;;
2022/12/30 18:43:39;;;;;;;64.7;38.4;;;;;;;1.6;86.6;99020;;;;
2022/12/30 18:54:39;;;;;;;64.7;38.4;;;;;;;1.4;86.6;99010;;;;
2022/12/30 19:04:39;;;;;;;48.1;28.9;;;;;;;1.4;87.6;99020;;;;
2022/12/30 19:14:39;;;;;;;48.1;28.9;;;;;;;1.4;88.5;99020;;;;
2022/12/30 19:25:39;;;;;;;44;26.5;;;;;;;1.4;88.7;99010;;;;
2022/12/30 19:35:39;;;;;;;44;26.5;;;;;;;1.3;88.8;99000;;;;
2022/12/30 19:45:39;;;;;;;44;26.5;;;;;;;1.2;88.7;99000;;;;
2022/12/30 19:56:39;;;;;;;77.5;45.3;;;;;;;1.1;88.4;98980;;;;
2022/12/30 20:07:39;;;;;;;77.5;45.3;;;;;;;1.1;88.3;98990;;;;
2022/12/30 20:18:39;;;;;;;77.5;45.3;;;;;;;1;88.5;99000;;;;
2022/12/30 20:29:39;;;;;;;83.8;50.5;;;;;;;0.9;88.6;99000;;;;
2022/12/30 20:39:39;;;;;;;83.8;50.5;;;;;;;0.8;88.8;98990;;;;
2022/12/30 20:50:39;;;;;;;83.8;50.5;;;;;;;0.8;88.9;98990;;;;
2022/12/30 21:00:39;;;;;;;71.5;46.9;;;;;;;0.8;89;98990;;;;
2022/12/30 21:11:39;;;;;;;71.5;46.9;;;;;;;0.7;88.8;98990;;;;
2022/12/30 21:21:39;;;;;;;71.5;46.9;;;;;;;0.7;89;98980;;;;
2022/12/30 21:32:39;;;;;;;53.5;34.4;;;;;;;0.8;89.5;98970;;;;
2022/12/30 22:03:39;;;;;;;46.1;29.1;;;;;;;0.8;89.7;98960;;;;
2022/12/30 22:14:40;;;;;;;46.1;29.1;;;;;;;0.9;89.6;98950;;;;
2022/12/30 22:24:39;;;;;;;41.9;28.4;;;;;;;0.7;89.2;98950;;;;
2022/12/30 22:34:39;;;;;;;41.9;28.4;;;;;;;0.7;89;98940;;;;
2022/12/30 22:45:39;;;;;;;41.9;28.4;;;;;;;0.7;88.7;98930;;;;
2022/12/30 22:56:39;;;;;;;49.9;30.7;;;;;;;0.6;88.3;98920;;;;
2022/12/30 23:07:39;;;;;;;49.9;30.7;;;;;;;0.5;88.1;98910;;;;
2022/12/30 23:18:39;;;;;;;49.9;30.7;;;;;;;0.3;88.1;98900;;;;
2022/12/30 23:29:39;;;;;;;56.8;33;;;;;;;0.2;88.1;98900;;;;
2022/12/30 23:39:39;;;;;;;56.8;33;;;;;;;0;88.3;98910;;;;
2022/12/30 23:50:39;;;;;;;56.8;33;;;;;;;-0.1;88.5;98900;;;;
